Time,TemperatureF,DewpointF,PressureIn,WindDirection,WindDirectionDegrees,WindSpeedMPH,WindSpeedGustMPH,Humidity,HourlyPrecipIn,Conditions,Clouds,dailyrainin,SolarRadiationWatts/m^2,SoftwareType,DateUTC
2013-10-04 00:04:00,60.9,60.9,28.98,NE,37,3.0,-999.0,100,0.00,,,0.00,0,WeatherHawk,2013-10-04 05:04:00,
2013-10-04 00:14:00,60.7,60.7,28.97,ENE,71,4.0,-999.0,100,0.00,,,0.00,0,WeatherHawk,2013-10-04 05:14:00,
2013-10-04 00:19:00,60.8,60.8,28.98,ESE,108,1.0,-999.0,100,0.00,,,0.00,0,WeatherHawk,2013-10-04 05:19:00,
2013-10-04 00:24:00,60.7,60.7,28.98,ENE,64,3.0,-999.0,100,0.00,,,0.00,0,WeatherHawk,2013-10-04 05:24:00,
2013-10-04 00:34:00,60.6,60.6,28.98,ENE,71,2.0,-999.0,100,0.00,,,0.00,0,WeatherHawk,2013-10-04 05:34:00,
2013-10-04 00:39:00,60.7,60.7,28.96,ENE,73,4.0,-999.0,100,0.00,,,0.00,0,WeatherHawk,2013-10-04 05:39:00,
2013-10-04 00:44:00,60.5,60.5,28.96,ENE,62,3.0,-999.0,100,0.00,,,0.00,0,WeatherHawk,2013-10-04 05:44:00,
2013-10-04 00:49:00,60.5,60.5,28.96,ENE,61,4.0,-999.0,100,0.00,,,0.00,0,WeatherHawk,2013-10-04 05:49:00,
2013-10-04 00:54:00,60.4,60.4,28.96,East,79,7.0,-999.0,100,0.00,,,0.00,0,WeatherHawk,2013-10-04 05:54:00,
2013-10-04 00:59:00,60.3,60.3,28.96,ENE,78,6.0,-999.0,100,0.00,,,0.00,0,WeatherHawk,2013-10-04 05:59:00,
2013-10-04 01:04:00,60.5,60.5,28.95,ENE,75,3.0,-999.0,100,0.00,,,0.00,0,WeatherHawk,2013-10-04 06:04:00,
2013-10-04 01:09:00,60.3,60.3,28.95,NE,46,4.0,-999.0,100,0.00,,,0.00,0,WeatherHawk,2013-10-04 06:09:00,
2013-10-04 01:14:00,60.4,60.4,28.96,ENE,77,0.0,-999.0,100,0.00,,,0.00,1,WeatherHawk,2013-10-04 06:14:00,
2013-10-04 01:19:00,60.4,60.4,28.96,East,84,0.0,-999.0,100,0.00,,,0.00,0,WeatherHawk,2013-10-04 06:19:00,
2013-10-04 01:24:00,60.5,60.5,28.95,East,80,0.0,-999.0,100,0.00,,,0.00,0,WeatherHawk,2013-10-04 06:24:00,
2013-10-04 01:29:00,60.5,60.5,28.96,ENE,60,0.0,-999.0,100,0.00,,,0.00,0,WeatherHawk,2013-10-04 06:29:00,
2013-10-04 01:34:00,60.7,60.7,28.96,NE,45,0.0,-999.0,100,0.00,,,0.00,0,WeatherHawk,2013-10-04 06:34:00,
2013-10-04 01:39:00,60.6,60.6,28.96,NNE,26,0.0,-999.0,100,0.00,,,0.00,0,WeatherHawk,2013-10-04 06:39:00,
2013-10-04 01:44:00,60.5,60.5,28.97,North,351,0.0,-999.0,100,0.00,,,0.00,0,WeatherHawk,2013-10-04 06:44:00,
2013-10-04 01:49:00,60.5,60.5,28.97,North,351,3.0,-999.0,100,0.00,,,0.00,0,WeatherHawk,2013-10-04 06:49:00,
2013-10-04 01:54:00,60.7,60.7,28.97,NNE,15,0.0,-999.0,100,0.00,,,0.00,0,WeatherHawk,2013-10-04 06:54:00,
2013-10-04 01:59:00,60.4,60.4,28.97,North,351,0.0,-999.0,100,0.00,,,0.00,1,WeatherHawk,2013-10-04 06:59:00,
2013-10-04 02:04:00,60.3,60.3,28.97,NW,326,0.0,-999.0,100,0.00,,,0.00,0,WeatherHawk,2013-10-04 07:04:00,
2013-10-04 02:09:00,60.1,60.1,28.97,NNW,331,0.0,-999.0,100,0.00,,,0.00,0,WeatherHawk,2013-10-04 07:09:00,
2013-10-04 02:14:00,60.4,60.4,28.99,NW,307,0.0,-999.0,100,0.00,,,0.00,0,WeatherHawk,2013-10-04 07:14:00,
2013-10-04 02:19:00,60.4,60.4,28.98,WNW,294,0.0,-999.0,100,0.00,,,0.00,0,WeatherHawk,2013-10-04 07:19:00,
2013-10-04 02:24:00,60.8,60.8,28.97,NNW,337,0.0,-999.0,100,0.00,,,0.00,0,WeatherHawk,2013-10-04 07:24:00,
2013-10-04 02:29:00,60.3,60.3,28.97,NE,53,0.0,-999.0,100,0.00,,,0.00,0,WeatherHawk,2013-10-04 07:29:00,
2013-10-04 02:34:00,60.4,60.4,28.97,NE,50,0.0,-999.0,100,0.00,,,0.00,0,WeatherHawk,2013-10-04 07:34:00,
2013-10-04 02:39:00,60.4,60.4,28.98,North,6,0.0,-999.0,100,0.00,,,0.00,1,WeatherHawk,2013-10-04 07:39:00,
2013-10-04 02:44:00,60.4,60.4,28.97,NE,49,0.0,-999.0,100,0.00,,,0.00,0,WeatherHawk,2013-10-04 07:44:00,
2013-10-04 02:49:00,60.3,60.3,28.98,East,82,0.0,-999.0,100,0.00,,,0.00,0,WeatherHawk,2013-10-04 07:49:00,
2013-10-04 02:54:00,60.0,60.0,28.98,East,87,4.0,-999.0,100,0.00,,,0.00,0,WeatherHawk,2013-10-04 07:54:00,
2013-10-04 02:59:00,59.9,59.9,28.98,East,83,4.0,-999.0,100,0.00,,,0.00,0,WeatherHawk,2013-10-04 07:59:00,
2013-10-04 03:04:00,60.1,60.1,28.98,ENE,66,1.0,-999.0,100,0.00,,,0.00,0,WeatherHawk,2013-10-04 08:04:00,
2013-10-04 03:09:00,59.9,59.9,28.97,ENE,64,2.0,-999.0,100,0.00,,,0.00,0,WeatherHawk,2013-10-04 08:09:00,
2013-10-04 03:14:00,59.9,59.9,28.98,NE,49,4.0,-999.0,100,0.00,,,0.00,1,WeatherHawk,2013-10-04 08:14:00,
2013-10-04 03:19:00,60.0,60.0,28.98,East,81,0.0,-999.0,100,0.00,,,0.00,0,WeatherHawk,2013-10-04 08:19:00,
2013-10-04 03:24:00,59.9,59.9,28.98,ENE,70,2.0,-999.0,100,0.00,,,0.00,0,WeatherHawk,2013-10-04 08:24:00,
2013-10-04 03:29:00,59.7,59.7,28.98,ENE,73,4.0,-999.0,100,0.00,,,0.00,0,WeatherHawk,2013-10-04 08:29:00,
2013-10-04 03:34:00,59.8,59.8,28.98,NE,55,1.0,-999.0,100,0.00,,,0.00,0,WeatherHawk,2013-10-04 08:34:00,
2013-10-04 03:39:00,59.7,59.7,28.99,ENE,57,3.0,-999.0,100,0.00,,,0.00,0,WeatherHawk,2013-10-04 08:39:00,
2013-10-04 03:44:00,59.5,59.5,28.99,ENE,71,4.0,-999.0,100,0.00,,,0.00,1,WeatherHawk,2013-10-04 08:44:00,
2013-10-04 03:49:00,59.6,59.6,29.00,East,81,4.0,-999.0,100,0.00,,,0.00,0,WeatherHawk,2013-10-04 08:49:00,
2013-10-04 03:54:00,59.5,59.5,28.99,ENE,63,3.0,-999.0,100,0.00,,,0.00,0,WeatherHawk,2013-10-04 08:54:00,
2013-10-04 03:59:00,59.5,59.5,28.99,NE,51,0.0,-999.0,100,0.00,,,0.00,1,WeatherHawk,2013-10-04 08:59:00,
2013-10-04 04:04:00,59.6,59.6,29.00,North,10,0.0,-999.0,100,0.00,,,0.00,0,WeatherHawk,2013-10-04 09:04:00,
2013-10-04 04:09:00,59.6,59.6,29.00,North,0,1.0,-999.0,100,0.00,,,0.00,0,WeatherHawk,2013-10-04 09:09:00,
2013-10-04 04:14:00,59.5,59.5,29.00,NNE,13,3.0,-999.0,100,0.00,,,0.00,0,WeatherHawk,2013-10-04 09:14:00,
2013-10-04 04:19:00,59.5,59.5,28.99,ENE,66,0.0,-999.0,100,0.00,,,0.00,0,WeatherHawk,2013-10-04 09:19:00,
2013-10-04 04:24:00,59.5,59.5,28.99,NE,42,0.0,-999.0,100,0.00,,,0.00,0,WeatherHawk,2013-10-04 09:24:00,
2013-10-04 04:29:00,59.5,59.5,29.00,NNE,18,0.0,-999.0,100,0.00,,,0.00,0,WeatherHawk,2013-10-04 09:29:00,
2013-10-04 04:34:00,59.5,59.5,29.00,NNE,17,0.0,-999.0,100,0.00,,,0.00,0,WeatherHawk,2013-10-04 09:34:00,
2013-10-04 04:39:00,59.6,59.6,29.00,North,1,0.0,-999.0,100,0.00,,,0.00,0,WeatherHawk,2013-10-04 09:39:00,
2013-10-04 04:44:00,59.4,59.4,29.00,NNE,13,3.0,-999.0,100,0.00,,,0.00,0,WeatherHawk,2013-10-04 09:44:00,
2013-10-04 04:49:00,59.4,59.4,29.00,ENE,76,0.0,-999.0,100,0.00,,,0.00,0,WeatherHawk,2013-10-04 09:49:00,
2013-10-04 04:54:00,59.6,59.6,29.01,ENE,64,0.0,-999.0,100,0.00,,,0.00,0,WeatherHawk,2013-10-04 09:54:00,
2013-10-04 04:59:00,59.4,59.4,29.01,North,11,0.0,-999.0,100,0.00,,,0.00,0,WeatherHawk,2013-10-04 09:59:00,
2013-10-04 05:04:00,59.4,59.4,29.01,NE,42,0.0,-999.0,100,0.00,,,0.00,0,WeatherHawk,2013-10-04 10:04:00,
2013-10-04 05:09:00,59.4,59.4,29.01,ENE,74,2.0,-999.0,100,0.00,,,0.00,0,WeatherHawk,2013-10-04 10:09:00,
2013-10-04 05:14:00,59.1,59.1,29.00,ENE,73,0.0,-999.0,100,0.00,,,0.00,0,WeatherHawk,2013-10-04 10:14:00,
2013-10-04 05:19:00,59.2,59.2,29.00,ENE,75,3.0,-999.0,100,0.00,,,0.00,0,WeatherHawk,2013-10-04 10:19:00,
2013-10-04 05:24:00,59.1,59.1,29.00,East,99,0.0,-999.0,100,0.00,,,0.00,0,WeatherHawk,2013-10-04 10:24:00,
2013-10-04 05:29:00,59.1,59.1,29.01,NE,56,0.0,-999.0,100,0.00,,,0.00,0,WeatherHawk,2013-10-04 10:29:00,
2013-10-04 05:34:00,59.1,59.1,29.00,ENE,58,0.0,-999.0,100,0.00,,,0.00,0,WeatherHawk,2013-10-04 10:34:00,
2013-10-04 05:39:00,59.0,59.0,29.00,NNE,29,0.0,-999.0,100,0.00,,,0.00,1,WeatherHawk,2013-10-04 10:39:00,
2013-10-04 05:44:00,58.9,58.9,29.00,NE,42,1.0,-999.0,100,0.00,,,0.00,0,WeatherHawk,2013-10-04 10:44:00,
2013-10-04 05:49:00,58.8,58.8,29.00,NE,38,1.0,-999.0,100,0.00,,,0.00,0,WeatherHawk,2013-10-04 10:49:00,
2013-10-04 05:54:00,58.5,58.5,29.00,ENE,73,5.0,-999.0,100,0.00,,,0.00,0,WeatherHawk,2013-10-04 10:54:00,
2013-10-04 05:59:00,58.5,58.5,29.00,East,80,5.0,-999.0,100,0.00,,,0.00,0,WeatherHawk,2013-10-04 10:59:00,
2013-10-04 06:04:00,58.6,58.6,29.01,NE,41,3.0,-999.0,100,0.00,,,0.00,0,WeatherHawk,2013-10-04 11:04:00,
2013-10-04 06:09:00,58.6,58.6,29.01,NE,47,0.0,-999.0,100,0.00,,,0.00,0,WeatherHawk,2013-10-04 11:09:00,
2013-10-04 06:14:00,58.6,58.6,29.02,NE,48,0.0,-999.0,100,0.00,,,0.00,1,WeatherHawk,2013-10-04 11:14:00,
2013-10-04 06:19:00,58.4,58.4,29.02,ENE,73,0.0,-999.0,100,0.00,,,0.00,0,WeatherHawk,2013-10-04 11:19:00,
2013-10-04 06:24:00,58.4,58.4,29.03,ENE,68,2.0,-999.0,100,0.00,,,0.00,0,WeatherHawk,2013-10-04 11:24:00,
2013-10-04 06:29:00,58.4,58.4,29.03,East,83,3.0,-999.0,100,0.00,,,0.00,0,WeatherHawk,2013-10-04 11:29:00,
2013-10-04 06:34:00,58.5,58.5,29.03,ENE,78,4.0,-999.0,100,0.00,,,0.00,0,WeatherHawk,2013-10-04 11:34:00,
2013-10-04 06:39:00,58.4,58.4,29.03,ENE,72,2.0,-999.0,100,0.00,,,0.00,0,WeatherHawk,2013-10-04 11:39:00,
2013-10-04 06:44:00,58.5,58.5,29.03,ENE,75,4.0,-999.0,100,0.00,,,0.00,1,WeatherHawk,2013-10-04 11:44:00,
2013-10-04 06:49:00,58.4,58.4,29.04,East,82,0.0,-999.0,100,0.08,,,0.08,1,WeatherHawk,2013-10-04 11:49:00,
2013-10-04 06:54:00,58.4,58.4,29.03,ENE,63,7.0,-999.0,100,0.16,,,0.16,0,WeatherHawk,2013-10-04 11:54:00,
2013-10-04 06:59:00,58.4,58.4,29.04,NW,317,2.0,-999.0,100,0.16,,,0.20,0,WeatherHawk,2013-10-04 11:59:00,
2013-10-04 07:04:00,58.5,58.5,29.03,East,88,1.0,-999.0,100,0.08,,,0.24,0,WeatherHawk,2013-10-04 12:04:00,
2013-10-04 07:09:00,58.4,58.4,29.04,ESE,116,0.0,-999.0,100,0.04,,,0.24,1,WeatherHawk,2013-10-04 12:09:00,
2013-10-04 07:14:00,58.5,58.5,29.04,North,351,4.0,-999.0,100,0.04,,,0.24,0,WeatherHawk,2013-10-04 12:14:00,
2013-10-04 07:19:00,58.7,58.7,29.05,WSW,251,4.0,-999.0,100,0.00,,,0.24,1,WeatherHawk,2013-10-04 12:19:00,
2013-10-04 07:24:00,58.4,58.4,29.05,North,0,5.0,-999.0,100,0.00,,,0.24,1,WeatherHawk,2013-10-04 12:24:00,
2013-10-04 07:29:00,58.4,58.4,29.05,NNE,21,0.0,-999.0,100,0.04,,,0.28,3,WeatherHawk,2013-10-04 12:29:00,
2013-10-04 07:34:00,58.4,58.4,29.05,NNW,344,0.0,-999.0,100,0.04,,,0.28,2,WeatherHawk,2013-10-04 12:34:00,
2013-10-04 07:39:00,58.4,58.4,29.05,NW,324,0.0,-999.0,100,0.00,,,0.28,4,WeatherHawk,2013-10-04 12:39:00,
2013-10-04 07:44:00,58.5,58.5,29.06,NNW,328,0.0,-999.0,100,0.00,,,0.28,4,WeatherHawk,2013-10-04 12:44:00,
2013-10-04 07:49:00,58.5,58.5,29.05,NE,34,0.0,-999.0,100,0.00,,,0.28,7,WeatherHawk,2013-10-04 12:49:00,
2013-10-04 07:54:00,58.7,58.7,29.05,NE,42,1.0,-999.0,100,0.00,,,0.28,6,WeatherHawk,2013-10-04 12:54:00,
2013-10-04 07:59:00,58.9,58.9,29.04,ENE,68,3.0,-999.0,100,0.00,,,0.28,9,WeatherHawk,2013-10-04 12:59:00,
2013-10-04 08:04:00,58.6,58.6,29.03,ENE,66,8.0,-999.0,100,0.00,,,0.28,11,WeatherHawk,2013-10-04 13:04:00,
2013-10-04 08:09:00,58.6,58.6,29.03,ENE,74,3.0,-999.0,100,0.00,,,0.28,10,WeatherHawk,2013-10-04 13:09:00,
2013-10-04 08:14:00,58.8,58.8,29.01,ENE,64,4.0,-999.0,100,0.00,,,0.28,15,WeatherHawk,2013-10-04 13:14:00,
2013-10-04 08:19:00,58.5,58.5,29.02,NNE,31,2.0,-999.0,100,0.00,,,0.28,16,WeatherHawk,2013-10-04 13:19:00,
2013-10-04 08:24:00,58.8,58.8,29.03,NNW,342,0.0,-999.0,100,0.00,,,0.28,13,WeatherHawk,2013-10-04 13:24:00,
2013-10-04 08:29:00,58.9,58.9,29.03,NNE,30,1.0,-999.0,100,0.00,,,0.28,19,WeatherHawk,2013-10-04 13:29:00,
2013-10-04 08:34:00,59.0,59.0,29.03,North,8,4.0,-999.0,100,0.00,,,0.28,25,WeatherHawk,2013-10-04 13:34:00,
2013-10-04 08:39:00,59.1,59.1,29.03,North,6,3.0,-999.0,100,0.00,,,0.28,25,WeatherHawk,2013-10-04 13:39:00,
2013-10-04 08:44:00,59.1,59.1,29.03,North,9,0.0,-999.0,100,0.00,,,0.28,29,WeatherHawk,2013-10-04 13:44:00,
2013-10-04 08:49:00,59.4,59.4,29.02,NE,41,5.0,-999.0,100,0.00,,,0.28,33,WeatherHawk,2013-10-04 13:49:00,
2013-10-04 08:54:00,59.0,59.0,29.03,NE,43,3.0,-999.0,100,0.00,,,0.28,41,WeatherHawk,2013-10-04 13:54:00,
2013-10-04 08:59:00,59.0,59.0,29.02,East,85,3.0,-999.0,100,0.00,,,0.28,38,WeatherHawk,2013-10-04 13:59:00,
2013-10-04 09:04:00,58.9,58.9,29.01,NE,37,5.0,-999.0,100,0.00,,,0.28,39,WeatherHawk,2013-10-04 14:04:00,
2013-10-04 09:09:00,58.7,58.7,29.00,East,96,9.0,-999.0,100,0.00,,,0.28,36,WeatherHawk,2013-10-04 14:09:00,
2013-10-04 09:19:00,58.5,58.5,29.02,NNE,13,6.0,-999.0,100,0.00,,,0.28,44,WeatherHawk,2013-10-04 14:19:00,
2013-10-04 09:24:00,58.6,58.6,29.01,ENE,60,1.0,-999.0,100,0.00,,,0.28,47,WeatherHawk,2013-10-04 14:24:00,
2013-10-04 09:29:00,58.7,58.7,29.02,NE,40,7.0,-999.0,100,0.00,,,0.28,50,WeatherHawk,2013-10-04 14:29:00,
2013-10-04 09:34:00,58.9,58.9,29.01,North,350,0.0,-999.0,100,0.00,,,0.28,56,WeatherHawk,2013-10-04 14:34:00,
2013-10-04 09:44:00,58.6,58.6,29.03,NE,37,0.0,-999.0,100,0.00,,,0.28,36,WeatherHawk,2013-10-04 14:44:00,
2013-10-04 09:54:00,58.6,58.6,29.02,North,2,5.0,-999.0,100,0.00,,,0.28,78,WeatherHawk,2013-10-04 14:54:00,
2013-10-04 09:59:00,58.8,58.8,29.01,ENE,73,2.0,-999.0,100,0.00,,,0.28,74,WeatherHawk,2013-10-04 14:59:00,
2013-10-04 10:04:00,58.9,58.9,29.01,ENE,64,6.0,-999.0,100,0.00,,,0.28,82,WeatherHawk,2013-10-04 15:04:00,
2013-10-04 10:09:00,58.7,58.7,29.02,NNE,31,8.0,-999.0,100,0.00,,,0.28,100,WeatherHawk,2013-10-04 15:09:00,
2013-10-04 10:14:00,58.5,58.5,29.03,East,93,10.0,-999.0,100,0.00,,,0.28,67,WeatherHawk,2013-10-04 15:14:00,
2013-10-04 10:19:00,58.6,58.6,29.02,ENE,74,9.0,-999.0,100,0.00,,,0.28,73,WeatherHawk,2013-10-04 15:19:00,
2013-10-04 10:24:00,58.5,58.5,29.02,ENE,72,7.0,-999.0,100,0.00,,,0.28,73,WeatherHawk,2013-10-04 15:24:00,
2013-10-04 10:29:00,58.4,58.4,29.03,ENE,77,5.0,-999.0,100,0.00,,,0.28,88,WeatherHawk,2013-10-04 15:29:00,
2013-10-04 10:34:00,58.6,58.6,29.03,East,87,7.0,-999.0,100,0.00,,,0.28,74,WeatherHawk,2013-10-04 15:34:00,
2013-10-04 10:39:00,58.4,58.4,29.02,ENE,77,8.0,-999.0,100,0.00,,,0.28,57,WeatherHawk,2013-10-04 15:39:00,
2013-10-04 10:44:00,58.6,58.6,29.03,East,83,7.0,-999.0,100,0.00,,,0.28,44,WeatherHawk,2013-10-04 15:44:00,
2013-10-04 10:49:00,58.7,58.7,29.05,ENE,68,4.0,-999.0,100,0.00,,,0.28,67,WeatherHawk,2013-10-04 15:49:00,
2013-10-04 10:54:00,59.0,59.0,29.03,ENE,57,2.0,-999.0,100,0.00,,,0.28,100,WeatherHawk,2013-10-04 15:54:00,
2013-10-04 10:59:00,59.1,59.1,29.06,ENE,67,4.0,-999.0,100,0.00,,,0.28,85,WeatherHawk,2013-10-04 15:59:00,
2013-10-04 11:04:00,58.9,58.9,29.06,ENE,62,4.0,-999.0,100,0.00,,,0.28,77,WeatherHawk,2013-10-04 16:04:00,
2013-10-04 11:09:00,59.0,59.0,29.06,East,80,4.0,-999.0,100,0.00,,,0.28,76,WeatherHawk,2013-10-04 16:09:00,
2013-10-04 11:14:00,58.9,58.9,29.06,ENE,61,4.0,-999.0,100,0.00,,,0.28,61,WeatherHawk,2013-10-04 16:14:00,
2013-10-04 11:19:00,59.5,59.5,29.07,ESE,112,0.0,-999.0,100,0.00,,,0.28,51,WeatherHawk,2013-10-04 16:19:00,
2013-10-04 11:24:00,59.0,59.0,29.07,ENE,71,4.0,-999.0,100,0.00,,,0.28,47,WeatherHawk,2013-10-04 16:24:00,
2013-10-04 11:29:00,59.2,59.2,29.08,ENE,57,0.0,-999.0,100,0.00,,,0.28,32,WeatherHawk,2013-10-04 16:29:00,
2013-10-04 11:34:00,59.2,59.2,29.08,ENE,75,0.0,-999.0,100,0.00,,,0.28,31,WeatherHawk,2013-10-04 16:34:00,
2013-10-04 11:39:00,59.0,59.0,29.09,ENE,58,0.0,-999.0,100,0.00,,,0.28,41,WeatherHawk,2013-10-04 16:39:00,
2013-10-04 11:44:00,59.3,59.3,29.08,ENE,74,0.0,-999.0,100,0.00,,,0.28,39,WeatherHawk,2013-10-04 16:44:00,
2013-10-04 11:49:00,59.0,59.0,29.08,NE,38,0.0,-999.0,100,0.00,,,0.28,40,WeatherHawk,2013-10-04 16:49:00,
2013-10-04 11:54:00,59.0,59.0,29.08,NE,56,0.0,-999.0,100,0.00,,,0.28,52,WeatherHawk,2013-10-04 16:54:00,
2013-10-04 11:59:00,59.1,59.1,29.10,ENE,75,1.0,-999.0,100,0.00,,,0.28,64,WeatherHawk,2013-10-04 16:59:00,
2013-10-04 12:04:00,59.2,59.2,29.07,NNE,29,0.0,-999.0,100,0.00,,,0.28,72,WeatherHawk,2013-10-04 17:04:00,
2013-10-04 12:09:00,59.2,59.2,29.07,NNE,31,0.0,-999.0,100,0.00,,,0.28,67,WeatherHawk,2013-10-04 17:09:00,
2013-10-04 12:14:00,58.9,58.9,29.07,NE,54,4.0,-999.0,100,0.00,,,0.28,55,WeatherHawk,2013-10-04 17:14:00,
2013-10-04 12:19:00,59.0,59.0,29.08,East,91,5.0,-999.0,100,0.00,,,0.28,54,WeatherHawk,2013-10-04 17:19:00,
2013-10-04 12:24:00,59.1,59.1,29.08,East,83,5.0,-999.0,100,0.00,,,0.28,48,WeatherHawk,2013-10-04 17:24:00,
2013-10-04 12:29:00,58.7,58.7,29.07,ENE,64,4.0,-999.0,100,0.00,,,0.28,48,WeatherHawk,2013-10-04 17:29:00,
2013-10-04 12:34:00,58.9,58.9,29.07,East,82,5.0,-999.0,100,0.00,,,0.28,47,WeatherHawk,2013-10-04 17:34:00,
2013-10-04 12:59:00,59.4,59.4,29.08,ENE,58,4.0,-999.0,100,0.00,,,0.28,63,WeatherHawk,2013-10-04 17:59:00,
2013-10-04 13:04:00,59.6,59.6,29.08,NE,50,0.0,-999.0,100,0.00,,,0.28,73,WeatherHawk,2013-10-04 18:04:00,
2013-10-04 13:09:00,59.2,59.2,29.09,East,80,5.0,-999.0,100,0.00,,,0.28,70,WeatherHawk,2013-10-04 18:09:00,
2013-10-04 13:14:00,59.2,59.2,29.08,NE,42,5.0,-999.0,100,0.00,,,0.28,82,WeatherHawk,2013-10-04 18:14:00,
2013-10-04 13:19:00,59.3,59.3,29.09,East,82,1.0,-999.0,100,0.00,,,0.28,97,WeatherHawk,2013-10-04 18:19:00,
2013-10-04 13:29:00,60.0,60.0,29.07,North,351,2.0,-999.0,100,0.00,,,0.28,98,WeatherHawk,2013-10-04 18:29:00,
2013-10-04 13:34:00,59.4,59.4,29.07,ENE,72,5.0,-999.0,100,0.00,,,0.28,76,WeatherHawk,2013-10-04 18:34:00,
2013-10-04 13:39:00,59.3,59.3,29.06,NE,38,6.0,-999.0,100,0.00,,,0.28,80,WeatherHawk,2013-10-04 18:39:00,
2013-10-04 13:44:00,59.4,59.4,29.05,NE,52,5.0,-999.0,100,0.00,,,0.28,91,WeatherHawk,2013-10-04 18:44:00,
2013-10-04 13:49:00,59.3,59.3,29.05,ENE,77,6.0,-999.0,100,0.00,,,0.28,123,WeatherHawk,2013-10-04 18:49:00,
2013-10-04 13:54:00,59.6,59.6,29.05,NE,53,5.0,-999.0,100,0.00,,,0.28,125,WeatherHawk,2013-10-04 18:54:00,
2013-10-04 13:59:00,59.8,59.8,29.04,NE,43,4.0,-999.0,100,0.00,,,0.28,80,WeatherHawk,2013-10-04 18:59:00,
2013-10-04 14:04:00,60.1,60.1,29.05,NE,34,3.0,-999.0,100,0.00,,,0.28,53,WeatherHawk,2013-10-04 19:04:00,
2013-10-04 14:09:00,60.2,60.2,29.05,NE,46,1.0,-999.0,100,0.00,,,0.28,48,WeatherHawk,2013-10-04 19:09:00,
2013-10-04 14:14:00,60.0,60.0,29.06,NNE,23,1.0,-999.0,100,0.00,,,0.28,50,WeatherHawk,2013-10-04 19:14:00,
2013-10-04 14:19:00,60.5,60.5,29.05,NNE,13,0.0,-999.0,100,0.00,,,0.28,61,WeatherHawk,2013-10-04 19:19:00,
2013-10-04 14:24:00,60.3,60.3,29.06,NNE,33,2.0,-999.0,100,0.00,,,0.28,118,WeatherHawk,2013-10-04 19:24:00,
2013-10-04 14:29:00,60.3,60.3,29.04,NNE,29,2.0,-999.0,100,0.00,,,0.28,145,WeatherHawk,2013-10-04 19:29:00,
2013-10-04 14:34:00,60.6,60.6,29.03,East,79,5.0,-999.0,100,0.00,,,0.28,139,WeatherHawk,2013-10-04 19:34:00,
2013-10-04 14:39:00,60.8,60.8,29.03,NNE,19,3.0,-999.0,100,0.00,,,0.28,120,WeatherHawk,2013-10-04 19:39:00,
2013-10-04 14:44:00,60.7,60.7,29.04,ENE,66,6.0,-999.0,100,0.00,,,0.28,110,WeatherHawk,2013-10-04 19:44:00,
2013-10-04 14:49:00,60.9,60.9,29.03,NE,43,7.0,-999.0,100,0.00,,,0.28,140,WeatherHawk,2013-10-04 19:49:00,
2013-10-04 14:54:00,61.1,61.1,29.03,East,81,8.0,-999.0,100,0.00,,,0.28,90,WeatherHawk,2013-10-04 19:54:00,
2013-10-04 14:59:00,61.2,61.2,29.03,ENE,71,4.0,-999.0,100,0.00,,,0.28,94,WeatherHawk,2013-10-04 19:59:00,
2013-10-04 15:04:00,61.0,61.0,29.02,ENE,75,6.0,-999.0,100,0.00,,,0.28,101,WeatherHawk,2013-10-04 20:04:00,
2013-10-04 15:09:00,61.4,61.4,29.02,ENE,71,5.0,-999.0,100,0.00,,,0.28,72,WeatherHawk,2013-10-04 20:09:00,
2013-10-04 15:14:00,61.5,61.5,29.02,NE,41,2.0,-999.0,100,0.00,,,0.28,102,WeatherHawk,2013-10-04 20:14:00,
2013-10-04 15:19:00,61.4,61.2,29.03,NE,44,4.0,-999.0,99,0.00,,,0.28,114,WeatherHawk,2013-10-04 20:19:00,
2013-10-04 15:24:00,61.2,61.0,29.02,ENE,59,8.0,-999.0,99,0.00,,,0.28,84,WeatherHawk,2013-10-04 20:24:00,
2013-10-04 15:29:00,61.5,60.9,29.03,ENE,73,4.0,-999.0,98,0.00,,,0.28,78,WeatherHawk,2013-10-04 20:29:00,
2013-10-04 15:34:00,61.4,60.8,29.04,East,81,5.0,-999.0,98,0.00,,,0.28,94,WeatherHawk,2013-10-04 20:34:00,
2013-10-04 15:39:00,61.8,61.3,29.03,NNE,21,3.0,-999.0,98,0.00,,,0.28,142,WeatherHawk,2013-10-04 20:39:00,
2013-10-04 15:44:00,61.7,61.1,29.03,NE,42,4.0,-999.0,98,0.00,,,0.28,99,WeatherHawk,2013-10-04 20:44:00,
2013-10-04 15:49:00,62.0,61.4,29.03,North,9,1.0,-999.0,98,0.00,,,0.28,99,WeatherHawk,2013-10-04 20:49:00,
2013-10-04 15:54:00,61.5,60.9,29.03,ENE,73,6.0,-999.0,98,0.00,,,0.28,86,WeatherHawk,2013-10-04 20:54:00,
2013-10-04 15:59:00,61.5,60.9,29.03,NE,55,4.0,-999.0,98,0.00,,,0.28,64,WeatherHawk,2013-10-04 20:59:00,
2013-10-04 16:04:00,60.9,60.3,29.03,ENE,66,1.0,-999.0,98,0.00,,,0.28,58,WeatherHawk,2013-10-04 21:04:00,
2013-10-04 16:09:00,60.9,60.6,29.02,North,5,5.0,-999.0,99,0.00,,,0.28,64,WeatherHawk,2013-10-04 21:09:00,
2013-10-04 16:14:00,60.7,60.7,29.03,ENE,72,9.0,-999.0,100,0.00,,,0.28,65,WeatherHawk,2013-10-04 21:14:00,
2013-10-04 16:19:00,60.7,60.7,29.04,ESE,105,8.0,-999.0,100,0.00,,,0.28,59,WeatherHawk,2013-10-04 21:19:00,
2013-10-04 16:24:00,60.7,60.7,29.03,East,83,7.0,-999.0,100,0.00,,,0.28,54,WeatherHawk,2013-10-04 21:24:00,
2013-10-04 16:29:00,60.8,60.8,29.03,East,85,4.0,-999.0,100,0.00,,,0.28,50,WeatherHawk,2013-10-04 21:29:00,
2013-10-04 16:34:00,60.9,60.9,29.04,NE,34,0.0,-999.0,100,0.00,,,0.28,49,WeatherHawk,2013-10-04 21:34:00,
2013-10-04 16:39:00,60.7,60.7,29.04,NE,53,7.0,-999.0,100,0.00,,,0.28,51,WeatherHawk,2013-10-04 21:39:00,
2013-10-04 16:44:00,60.8,60.8,29.04,ENE,78,7.0,-999.0,100,0.00,,,0.28,42,WeatherHawk,2013-10-04 21:44:00,
2013-10-04 16:49:00,60.8,60.8,29.05,ENE,69,5.0,-999.0,100,0.00,,,0.28,45,WeatherHawk,2013-10-04 21:49:00,
2013-10-04 16:54:00,60.8,60.8,29.04,ENE,77,4.0,-999.0,100,0.00,,,0.28,47,WeatherHawk,2013-10-04 21:54:00,
2013-10-04 16:59:00,60.8,60.8,29.04,East,82,4.0,-999.0,100,0.00,,,0.28,43,WeatherHawk,2013-10-04 21:59:00,
2013-10-04 17:04:00,60.7,60.7,29.05,ENE,72,6.0,-999.0,100,0.00,,,0.28,34,WeatherHawk,2013-10-04 22:04:00,
2013-10-04 17:09:00,60.6,60.6,29.04,ENE,73,6.0,-999.0,100,0.00,,,0.28,30,WeatherHawk,2013-10-04 22:09:00,
2013-10-04 17:14:00,60.7,60.7,29.03,NE,49,4.0,-999.0,100,0.00,,,0.28,30,WeatherHawk,2013-10-04 22:14:00,
2013-10-04 17:19:00,60.7,60.7,29.04,NE,55,5.0,-999.0,100,0.00,,,0.28,32,WeatherHawk,2013-10-04 22:19:00,
2013-10-04 17:24:00,60.7,60.7,29.04,ENE,69,2.0,-999.0,100,0.00,,,0.28,34,WeatherHawk,2013-10-04 22:24:00,
2013-10-04 17:29:00,60.5,60.5,29.04,East,90,3.0,-999.0,100,0.00,,,0.28,32,WeatherHawk,2013-10-04 22:29:00,
2013-10-04 17:34:00,60.6,60.6,29.03,ENE,77,3.0,-999.0,100,0.00,,,0.28,36,WeatherHawk,2013-10-04 22:34:00,
2013-10-04 17:39:00,60.3,60.3,29.04,NE,50,1.0,-999.0,100,0.00,,,0.28,30,WeatherHawk,2013-10-04 22:39:00,
2013-10-04 17:44:00,60.2,60.2,29.03,East,80,4.0,-999.0,100,0.00,,,0.28,26,WeatherHawk,2013-10-04 22:44:00,
2013-10-04 17:49:00,60.2,60.2,29.04,ENE,75,4.0,-999.0,100,0.00,,,0.28,23,WeatherHawk,2013-10-04 22:49:00,
2013-10-04 17:54:00,60.0,60.0,29.04,East,81,5.0,-999.0,100,0.00,,,0.28,25,WeatherHawk,2013-10-04 22:54:00,
2013-10-04 17:59:00,60.0,60.0,29.05,East,83,7.0,-999.0,100,0.00,,,0.28,21,WeatherHawk,2013-10-04 22:59:00,
2013-10-04 18:04:00,60.1,60.1,29.04,NE,47,3.0,-999.0,100,0.00,,,0.28,14,WeatherHawk,2013-10-04 23:04:00,
2013-10-04 18:09:00,60.1,60.1,29.04,East,82,4.0,-999.0,100,0.00,,,0.28,9,WeatherHawk,2013-10-04 23:09:00,
2013-10-04 18:14:00,60.1,60.1,29.04,North,7,0.0,-999.0,100,0.00,,,0.28,5,WeatherHawk,2013-10-04 23:14:00,
2013-10-04 18:19:00,59.8,59.8,29.04,East,92,0.0,-999.0,100,0.00,,,0.28,3,WeatherHawk,2013-10-04 23:19:00,
2013-10-04 18:24:00,59.8,59.8,29.04,NNE,21,0.0,-999.0,100,0.00,,,0.28,1,WeatherHawk,2013-10-04 23:24:00,
2013-10-04 18:29:00,59.6,59.6,29.04,East,96,5.0,-999.0,100,0.00,,,0.28,0,WeatherHawk,2013-10-04 23:29:00,
2013-10-04 18:34:00,59.7,59.7,29.05,ENE,72,3.0,-999.0,100,0.00,,,0.28,1,WeatherHawk,2013-10-04 23:34:00,
2013-10-04 18:39:00,59.5,59.5,29.03,ENE,66,7.0,-999.0,100,0.00,,,0.28,0,WeatherHawk,2013-10-04 23:39:00,
2013-10-04 18:44:00,59.4,59.4,29.04,East,87,5.0,-999.0,100,0.00,,,0.28,0,WeatherHawk,2013-10-04 23:44:00,
2013-10-04 18:49:00,59.4,59.4,29.05,ENE,71,10.0,-999.0,100,0.00,,,0.28,0,WeatherHawk,2013-10-04 23:49:00,
2013-10-04 18:54:00,59.3,59.3,29.06,East,81,6.0,-999.0,100,0.00,,,0.28,0,WeatherHawk,2013-10-04 23:54:00,
2013-10-04 18:59:00,59.3,59.3,29.06,East,80,5.0,-999.0,100,0.00,,,0.28,0,WeatherHawk,2013-10-04 23:59:00,
2013-10-04 19:04:00,59.4,59.4,29.07,NNE,13,3.0,-999.0,100,0.00,,,0.28,0,WeatherHawk,2013-10-05 00:04:00,
2013-10-04 19:09:00,59.3,59.3,29.05,ENE,63,7.0,-999.0,100,0.00,,,0.28,0,WeatherHawk,2013-10-05 00:09:00,
2013-10-04 19:14:00,59.3,59.3,29.05,NE,46,6.0,-999.0,100,0.00,,,0.28,0,WeatherHawk,2013-10-05 00:14:00,
2013-10-04 19:19:00,59.4,59.4,29.05,East,85,6.0,-999.0,100,0.00,,,0.28,0,WeatherHawk,2013-10-05 00:19:00,
2013-10-04 19:24:00,59.4,59.4,29.05,ENE,64,7.0,-999.0,100,0.00,,,0.28,0,WeatherHawk,2013-10-05 00:24:00,
2013-10-04 19:29:00,59.4,59.4,29.06,NE,51,5.0,-999.0,100,0.00,,,0.28,0,WeatherHawk,2013-10-05 00:29:00,
2013-10-04 19:34:00,59.5,59.5,29.05,ENE,63,3.0,-999.0,100,0.00,,,0.28,0,WeatherHawk,2013-10-05 00:34:00,
2013-10-04 19:39:00,59.5,59.5,29.05,NE,53,3.0,-999.0,100,0.00,,,0.28,0,WeatherHawk,2013-10-05 00:39:00,
2013-10-04 19:44:00,59.5,59.5,29.05,ENE,66,5.0,-999.0,100,0.00,,,0.28,0,WeatherHawk,2013-10-05 00:44:00,
2013-10-04 19:49:00,59.6,59.6,29.05,NE,51,2.0,-999.0,100,0.00,,,0.28,1,WeatherHawk,2013-10-05 00:49:00,
2013-10-04 19:54:00,59.6,59.6,29.04,NE,55,5.0,-999.0,100,0.00,,,0.28,0,WeatherHawk,2013-10-05 00:54:00,
2013-10-04 19:59:00,59.7,59.7,29.05,ENE,60,3.0,-999.0,100,0.00,,,0.28,0,WeatherHawk,2013-10-05 00:59:00,
2013-10-04 20:04:00,59.7,59.7,29.05,North,3,2.0,-999.0,100,0.00,,,0.28,0,WeatherHawk,2013-10-05 01:04:00,
2013-10-04 20:09:00,59.8,59.8,29.04,East,86,7.0,-999.0,100,0.00,,,0.28,0,WeatherHawk,2013-10-05 01:09:00,
2013-10-04 20:14:00,59.9,59.9,29.04,NE,36,0.0,-999.0,100,0.00,,,0.28,1,WeatherHawk,2013-10-05 01:14:00,
2013-10-04 20:19:00,59.9,59.9,29.04,East,95,5.0,-999.0,100,0.00,,,0.28,0,WeatherHawk,2013-10-05 01:19:00,
2013-10-04 20:24:00,59.8,59.8,29.04,ENE,77,6.0,-999.0,100,0.00,,,0.28,0,WeatherHawk,2013-10-05 01:24:00,
2013-10-04 20:29:00,59.8,59.8,29.04,ENE,78,8.0,-999.0,100,0.00,,,0.28,0,WeatherHawk,2013-10-05 01:29:00,
2013-10-04 20:34:00,59.9,59.9,29.04,ENE,72,6.0,-999.0,100,0.00,,,0.28,0,WeatherHawk,2013-10-05 01:34:00,
2013-10-04 20:39:00,60.0,60.0,29.03,ENE,71,7.0,-999.0,100,0.00,,,0.28,0,WeatherHawk,2013-10-05 01:39:00,
2013-10-04 20:44:00,59.9,59.9,29.03,ENE,60,8.0,-999.0,100,0.00,,,0.28,0,WeatherHawk,2013-10-05 01:44:00,
2013-10-04 20:49:00,60.0,60.0,29.03,East,91,6.0,-999.0,100,0.00,,,0.28,0,WeatherHawk,2013-10-05 01:49:00,
2013-10-04 20:54:00,60.0,60.0,29.02,NE,39,4.0,-999.0,100,0.00,,,0.28,0,WeatherHawk,2013-10-05 01:54:00,
2013-10-04 20:59:00,60.1,60.1,29.04,East,93,4.0,-999.0,100,0.00,,,0.28,0,WeatherHawk,2013-10-05 01:59:00,
2013-10-04 21:04:00,60.1,60.1,29.04,ENE,66,4.0,-999.0,100,0.00,,,0.28,0,WeatherHawk,2013-10-05 02:04:00,
2013-10-04 21:09:00,60.1,60.1,29.04,NE,51,6.0,-999.0,100,0.00,,,0.28,0,WeatherHawk,2013-10-05 02:09:00,
2013-10-04 21:14:00,60.2,60.2,29.05,ESE,108,4.0,-999.0,100,0.00,,,0.28,0,WeatherHawk,2013-10-05 02:14:00,
2013-10-04 21:19:00,60.1,60.1,29.04,ENE,65,10.0,-999.0,100,0.00,,,0.28,0,WeatherHawk,2013-10-05 02:19:00,
2013-10-04 21:24:00,60.2,60.2,29.05,East,80,2.0,-999.0,100,0.00,,,0.28,0,WeatherHawk,2013-10-05 02:24:00,
2013-10-04 21:29:00,60.2,60.2,29.06,NNE,12,4.0,-999.0,100,0.00,,,0.28,0,WeatherHawk,2013-10-05 02:29:00,
2013-10-04 21:34:00,60.1,60.1,29.05,ENE,59,8.0,-999.0,100,0.00,,,0.28,0,WeatherHawk,2013-10-05 02:34:00,
2013-10-04 21:39:00,60.1,60.1,29.04,NNW,343,5.0,-999.0,100,0.00,,,0.28,1,WeatherHawk,2013-10-05 02:39:00,
2013-10-04 21:44:00,60.0,60.0,29.06,ENE,69,8.0,-999.0,100,0.00,,,0.28,0,WeatherHawk,2013-10-05 02:44:00,
2013-10-04 21:49:00,60.0,60.0,29.04,NE,53,9.0,-999.0,100,0.00,,,0.28,0,WeatherHawk,2013-10-05 02:49:00,
2013-10-04 21:54:00,60.0,60.0,29.05,East,92,6.0,-999.0,100,0.00,,,0.28,0,WeatherHawk,2013-10-05 02:54:00,
2013-10-04 21:59:00,59.9,59.9,29.04,ENE,78,5.0,-999.0,100,0.00,,,0.28,0,WeatherHawk,2013-10-05 02:59:00,
2013-10-04 22:04:00,59.9,59.9,29.05,ENE,62,8.0,-999.0,100,0.00,,,0.28,0,WeatherHawk,2013-10-05 03:04:00,
2013-10-04 22:09:00,59.9,59.9,29.04,NE,45,4.0,-999.0,100,0.00,,,0.28,0,WeatherHawk,2013-10-05 03:09:00,
2013-10-04 22:14:00,59.9,59.9,29.04,ENE,61,5.0,-999.0,100,0.00,,,0.28,0,WeatherHawk,2013-10-05 03:14:00,
2013-10-04 22:19:00,59.9,59.9,29.05,NE,52,7.0,-999.0,100,0.00,,,0.28,0,WeatherHawk,2013-10-05 03:19:00,
2013-10-04 22:24:00,59.8,59.8,29.05,ENE,67,8.0,-999.0,100,0.00,,,0.28,0,WeatherHawk,2013-10-05 03:24:00,
2013-10-04 22:29:00,59.9,59.9,29.05,East,88,2.0,-999.0,100,0.00,,,0.28,1,WeatherHawk,2013-10-05 03:29:00,
2013-10-04 22:34:00,59.8,59.8,29.05,East,81,2.0,-999.0,100,0.00,,,0.28,0,WeatherHawk,2013-10-05 03:34:00,
2013-10-04 22:39:00,59.8,59.8,29.05,North,7,6.0,-999.0,100,0.00,,,0.28,0,WeatherHawk,2013-10-05 03:39:00,
2013-10-04 22:44:00,59.8,59.8,29.05,East,80,3.0,-999.0,100,0.00,,,0.28,1,WeatherHawk,2013-10-05 03:44:00,
2013-10-04 22:49:00,59.8,59.8,29.04,ENE,71,5.0,-999.0,100,0.00,,,0.28,0,WeatherHawk,2013-10-05 03:49:00,
2013-10-04 22:54:00,59.8,59.8,29.04,ENE,78,7.0,-999.0,100,0.00,,,0.28,0,WeatherHawk,2013-10-05 03:54:00,
2013-10-04 22:59:00,59.9,59.9,29.04,ENE,62,5.0,-999.0,100,0.00,,,0.28,0,WeatherHawk,2013-10-05 03:59:00,
2013-10-04 23:04:00,59.9,59.9,29.04,ENE,67,4.0,-999.0,100,0.00,,,0.28,0,WeatherHawk,2013-10-05 04:04:00,
2013-10-04 23:09:00,59.9,59.9,29.04,NE,45,3.0,-999.0,100,0.00,,,0.28,0,WeatherHawk,2013-10-05 04:09:00,
2013-10-04 23:14:00,60.0,60.0,29.05,ESE,103,6.0,-999.0,100,0.00,,,0.28,0,WeatherHawk,2013-10-05 04:14:00,
2013-10-04 23:19:00,59.9,59.9,29.03,ENE,71,7.0,-999.0,100,0.00,,,0.28,0,WeatherHawk,2013-10-05 04:19:00,
2013-10-04 23:24:00,59.9,59.9,29.04,ENE,69,9.0,-999.0,100,0.00,,,0.28,0,WeatherHawk,2013-10-05 04:24:00,
2013-10-04 23:29:00,59.9,59.9,29.03,East,81,7.0,-999.0,100,0.00,,,0.28,0,WeatherHawk,2013-10-05 04:29:00,
2013-10-04 23:34:00,59.9,59.9,29.03,NNE,18,8.0,-999.0,100,0.00,,,0.28,0,WeatherHawk,2013-10-05 04:34:00,
2013-10-04 23:39:00,60.0,60.0,29.03,ENE,67,6.0,-999.0,100,0.00,,,0.28,0,WeatherHawk,2013-10-05 04:39:00,
2013-10-04 23:44:00,59.9,59.9,29.02,NE,43,8.0,-999.0,100,0.00,,,0.28,0,WeatherHawk,2013-10-05 04:44:00,
2013-10-04 23:49:00,59.9,59.9,29.03,ENE,68,8.0,-999.0,100,0.00,,,0.28,0,WeatherHawk,2013-10-05 04:49:00,
2013-10-04 23:54:00,59.9,59.9,29.01,ENE,78,9.0,-999.0,100,0.00,,,0.28,0,WeatherHawk,2013-10-05 04:54:00,
2013-10-04 23:59:00,59.8,59.8,29.01,ENE,67,9.0,-999.0,100,0.00,,,0.00,0,WeatherHawk,2013-10-05 04:59:00,